sensor_id;sensor_type;location;lat;lon;timestamp;temperature;humidity
2363;DHT22;64265;51.664;7.626;2023-03-02T00:00:01;20.10;63.20
2363;DHT22;64265;51.664;7.626;2023-03-02T00:02:29;20.10;63.20
2363;DHT22;64265;51.664;7.626;2023-03-02T00:04:57;20.10;63.20
2363;DHT22;64265;51.664;7.626;2023-03-02T00:07:27;20.10;63.30
2363;DHT22;64265;51.664;7.626;2023-03-02T00:09:57;20.10;63.30
2363;DHT22;64265;51.664;7.626;2023-03-02T00:12:26;20.10;63.30
2363;DHT22;64265;51.664;7.626;2023-03-02T00:14:53;20.10;63.30
2363;DHT22;64265;51.664;7.626;2023-03-02T00:17:20;20.10;63.40
2363;DHT22;64265;51.664;7.626;2023-03-02T00:19:52;20.10;63.40
2363;DHT22;64265;51.664;7.626;2023-03-02T00:22:19;20.10;63.40
2363;DHT22;64265;51.664;7.626;2023-03-02T00:24:45;20.10;63.40
2363;DHT22;64265;51.664;7.626;2023-03-02T00:27:13;20.10;63.40
2363;DHT22;64265;51.664;7.626;2023-03-02T00:29:41;20.10;63.50
2363;DHT22;64265;51.664;7.626;2023-03-02T00:32:07;20.10;63.50
2363;DHT22;64265;51.664;7.626;2023-03-02T00:34:36;20.10;63.50
2363;DHT22;64265;51.664;7.626;2023-03-02T00:37:02;20.10;63.50
2363;DHT22;64265;51.664;7.626;2023-03-02T00:39:29;20.10;63.50
2363;DHT22;64265;51.664;7.626;2023-03-02T00:41:56;20.10;63.50
2363;DHT22;64265;51.664;7.626;2023-03-02T00:44:24;20.10;63.60
2363;DHT22;64265;51.664;7.626;2023-03-02T00:46:50;20.10;63.70
2363;DHT22;64265;51.664;7.626;2023-03-02T00:49:17;20.00;63.50
2363;DHT22;64265;51.664;7.626;2023-03-02T00:51:44;20.10;63.60
2363;DHT22;64265;51.664;7.626;2023-03-02T00:54:10;20.10;63.70
2363;DHT22;64265;51.664;7.626;2023-03-02T00:56:37;20.00;63.50
2363;DHT22;64265;51.664;7.626;2023-03-02T00:59:04;20.00;63.50
2363;DHT22;64265;51.664;7.626;2023-03-02T01:01:33;20.00;63.60
2363;DHT22;64265;51.664;7.626;2023-03-02T01:03:59;20.00;63.60
2363;DHT22;64265;51.664;7.626;2023-03-02T01:06:26;20.00;63.60
2363;DHT22;64265;51.664;7.626;2023-03-02T01:08:53;20.00;63.60
2363;DHT22;64265;51.664;7.626;2023-03-02T01:11:21;20.10;63.80
2363;DHT22;64265;51.664;7.626;2023-03-02T01:13:48;20.10;63.70
2363;DHT22;64265;51.664;7.626;2023-03-02T01:16:15;20.10;63.70
2363;DHT22;64265;51.664;7.626;2023-03-02T01:18:43;20.10;63.80
2363;DHT22;64265;51.664;7.626;2023-03-02T01:21:12;20.10;63.80
2363;DHT22;64265;51.664;7.626;2023-03-02T01:23:40;20.10;63.80
2363;DHT22;64265;51.664;7.626;2023-03-02T01:26:06;20.10;63.80
2363;DHT22;64265;51.664;7.626;2023-03-02T01:28:33;20.10;63.80
2363;DHT22;64265;51.664;7.626;2023-03-02T01:31:00;20.10;63.80
2363;DHT22;64265;51.664;7.626;2023-03-02T01:33:29;20.10;63.80
2363;DHT22;64265;51.664;7.626;2023-03-02T01:35:57;20.10;63.80
2363;DHT22;64265;51.664;7.626;2023-03-02T01:38:23;20.10;63.80
2363;DHT22;64265;51.664;7.626;2023-03-02T01:40:50;20.10;63.80
2363;DHT22;64265;51.664;7.626;2023-03-02T01:43:17;20.10;63.80
2363;DHT22;64265;51.664;7.626;2023-03-02T01:45:50;20.10;63.80
2363;DHT22;64265;51.664;7.626;2023-03-02T01:48:21;20.10;63.80
2363;DHT22;64265;51.664;7.626;2023-03-02T01:50:49;20.10;63.80
2363;DHT22;64265;51.664;7.626;2023-03-02T01:53:17;20.10;63.80
2363;DHT22;64265;51.664;7.626;2023-03-02T01:55:47;20.10;63.80
2363;DHT22;64265;51.664;7.626;2023-03-02T01:58:15;20.10;63.80
2363;DHT22;64265;51.664;7.626;2023-03-02T02:00:43;20.10;63.80
2363;DHT22;64265;51.664;7.626;2023-03-02T02:03:13;20.10;63.80
2363;DHT22;64265;51.664;7.626;2023-03-02T02:05:48;20.10;63.80
2363;DHT22;64265;51.664;7.626;2023-03-02T02:08:22;20.10;63.80
2363;DHT22;64265;51.664;7.626;2023-03-02T02:10:50;20.10;63.80
2363;DHT22;64265;51.664;7.626;2023-03-02T02:13:17;20.00;63.70
2363;DHT22;64265;51.664;7.626;2023-03-02T02:15:43;20.00;63.70
2363;DHT22;64265;51.664;7.626;2023-03-02T02:18:10;20.10;63.80
2363;DHT22;64265;51.664;7.626;2023-03-02T02:20:39;20.10;63.80
2363;DHT22;64265;51.664;7.626;2023-03-02T02:23:22;20.10;63.80
2363;DHT22;64265;51.664;7.626;2023-03-02T02:26:14;20.00;63.70
2363;DHT22;64265;51.664;7.626;2023-03-02T02:28:46;20.10;63.80
2363;DHT22;64265;51.664;7.626;2023-03-02T02:31:16;20.10;63.90
2363;DHT22;64265;51.664;7.626;2023-03-02T02:33:49;20.00;63.80
2363;DHT22;64265;51.664;7.626;2023-03-02T02:36:21;20.00;63.80
2363;DHT22;64265;51.664;7.626;2023-03-02T02:38:51;20.00;63.80
2363;DHT22;64265;51.664;7.626;2023-03-02T02:41:23;20.00;63.80
2363;DHT22;64265;51.664;7.626;2023-03-02T02:43:54;20.00;63.80
2363;DHT22;64265;51.664;7.626;2023-03-02T02:46:22;20.00;63.90
2363;DHT22;64265;51.664;7.626;2023-03-02T02:48:49;20.00;63.80
2363;DHT22;64265;51.664;7.626;2023-03-02T02:51:19;20.00;63.80
2363;DHT22;64265;51.664;7.626;2023-03-02T02:53:50;20.00;63.90
2363;DHT22;64265;51.664;7.626;2023-03-02T02:56:26;20.00;63.90
2363;DHT22;64265;51.664;7.626;2023-03-02T02:58:55;20.00;64.60
2363;DHT22;64265;51.664;7.626;2023-03-02T03:01:23;20.00;63.90
2363;DHT22;64265;51.664;7.626;2023-03-02T03:03:53;20.00;63.90
2363;DHT22;64265;51.664;7.626;2023-03-02T03:06:23;20.00;63.90
2363;DHT22;64265;51.664;7.626;2023-03-02T03:09:00;20.00;63.90
2363;DHT22;64265;51.664;7.626;2023-03-02T03:11:31;20.00;63.90
2363;DHT22;64265;51.664;7.626;2023-03-02T03:14:04;20.00;63.90
2363;DHT22;64265;51.664;7.626;2023-03-02T03:16:32;20.00;63.90
2363;DHT22;64265;51.664;7.626;2023-03-02T03:19:04;20.00;63.90
2363;DHT22;64265;51.664;7.626;2023-03-02T03:21:32;20.00;63.90
2363;DHT22;64265;51.664;7.626;2023-03-02T03:23:59;20.00;64.00
2363;DHT22;64265;51.664;7.626;2023-03-02T03:26:26;20.00;63.90
2363;DHT22;64265;51.664;7.626;2023-03-02T03:28:54;20.00;63.90
2363;DHT22;64265;51.664;7.626;2023-03-02T03:31:23;20.00;64.00
2363;DHT22;64265;51.664;7.626;2023-03-02T03:33:50;20.00;63.90
2363;DHT22;64265;51.664;7.626;2023-03-02T03:36:16;20.00;64.00
2363;DHT22;64265;51.664;7.626;2023-03-02T03:38:43;20.00;64.00
2363;DHT22;64265;51.664;7.626;2023-03-02T03:41:10;20.00;64.00
2363;DHT22;64265;51.664;7.626;2023-03-02T03:43:37;20.00;64.00
2363;DHT22;64265;51.664;7.626;2023-03-02T03:46:05;20.00;64.00
2363;DHT22;64265;51.664;7.626;2023-03-02T03:48:32;20.00;64.00
2363;DHT22;64265;51.664;7.626;2023-03-02T03:50:59;20.00;64.80
2363;DHT22;64265;51.664;7.626;2023-03-02T03:53:26;20.00;64.00
2363;DHT22;64265;51.664;7.626;2023-03-02T03:55:53;20.00;64.00
2363;DHT22;64265;51.664;7.626;2023-03-02T03:58:21;20.00;64.00
2363;DHT22;64265;51.664;7.626;2023-03-02T04:00:48;20.00;64.00
2363;DHT22;64265;51.664;7.626;2023-03-02T04:03:16;20.00;64.00
2363;DHT22;64265;51.664;7.626;2023-03-02T04:05:44;20.00;64.00
2363;DHT22;64265;51.664;7.626;2023-03-02T04:08:11;20.00;64.00
2363;DHT22;64265;51.664;7.626;2023-03-02T04:10:38;20.00;64.00
2363;DHT22;64265;51.664;7.626;2023-03-02T04:13:05;20.00;64.00
2363;DHT22;64265;51.664;7.626;2023-03-02T04:15:32;20.00;64.00
2363;DHT22;64265;51.664;7.626;2023-03-02T04:17:59;20.00;64.00
2363;DHT22;64265;51.664;7.626;2023-03-02T04:20:28;20.00;64.00
2363;DHT22;64265;51.664;7.626;2023-03-02T04:22:56;20.00;64.00
2363;DHT22;64265;51.664;7.626;2023-03-02T04:25:25;20.00;64.00
2363;DHT22;64265;51.664;7.626;2023-03-02T04:27:52;20.00;64.00
2363;DHT22;64265;51.664;7.626;2023-03-02T04:30:22;20.00;64.10
2363;DHT22;64265;51.664;7.626;2023-03-02T04:32:49;20.00;64.10
2363;DHT22;64265;51.664;7.626;2023-03-02T04:35:16;20.00;64.10
2363;DHT22;64265;51.664;7.626;2023-03-02T04:37:44;20.00;64.10
2363;DHT22;64265;51.664;7.626;2023-03-02T04:40:12;20.00;64.10
2363;DHT22;64265;51.664;7.626;2023-03-02T04:42:39;20.00;64.10
2363;DHT22;64265;51.664;7.626;2023-03-02T04:45:07;20.00;64.10
2363;DHT22;64265;51.664;7.626;2023-03-02T04:47:33;20.00;64.10
2363;DHT22;64265;51.664;7.626;2023-03-02T04:50:00;20.00;64.20
2363;DHT22;64265;51.664;7.626;2023-03-02T04:52:27;20.00;64.20
2363;DHT22;64265;51.664;7.626;2023-03-02T04:54:55;20.00;64.20
2363;DHT22;64265;51.664;7.626;2023-03-02T04:57:22;20.00;64.20
2363;DHT22;64265;51.664;7.626;2023-03-02T04:59:48;20.00;64.20
2363;DHT22;64265;51.664;7.626;2023-03-02T05:02:15;20.00;64.20
2363;DHT22;64265;51.664;7.626;2023-03-02T05:04:42;20.00;64.20
2363;DHT22;64265;51.664;7.626;2023-03-02T05:07:09;20.00;64.20
2363;DHT22;64265;51.664;7.626;2023-03-02T05:09:36;20.00;64.20
2363;DHT22;64265;51.664;7.626;2023-03-02T05:12:04;20.00;64.20
2363;DHT22;64265;51.664;7.626;2023-03-02T05:14:31;20.00;64.20
2363;DHT22;64265;51.664;7.626;2023-03-02T05:16:58;20.00;64.20
2363;DHT22;64265;51.664;7.626;2023-03-02T05:19:25;20.00;64.20
2363;DHT22;64265;51.664;7.626;2023-03-02T05:21:51;20.00;64.20
2363;DHT22;64265;51.664;7.626;2023-03-02T05:24:18;20.00;64.20
2363;DHT22;64265;51.664;7.626;2023-03-02T05:26:48;20.00;64.20
2363;DHT22;64265;51.664;7.626;2023-03-02T05:29:16;20.00;64.20
2363;DHT22;64265;51.664;7.626;2023-03-02T05:31:44;20.00;64.20
2363;DHT22;64265;51.664;7.626;2023-03-02T05:34:13;20.00;64.20
2363;DHT22;64265;51.664;7.626;2023-03-02T05:36:40;20.00;65.00
2363;DHT22;64265;51.664;7.626;2023-03-02T05:39:08;20.00;64.20
2363;DHT22;64265;51.664;7.626;2023-03-02T05:41:35;20.00;64.30
2363;DHT22;64265;51.664;7.626;2023-03-02T05:44:03;20.00;64.30
2363;DHT22;64265;51.664;7.626;2023-03-02T05:46:31;20.00;64.30
2363;DHT22;64265;51.664;7.626;2023-03-02T05:48:58;20.00;64.30
2363;DHT22;64265;51.664;7.626;2023-03-02T05:51:25;20.00;64.30
2363;DHT22;64265;51.664;7.626;2023-03-02T05:53:52;20.00;64.30
2363;DHT22;64265;51.664;7.626;2023-03-02T05:56:19;20.00;64.30
2363;DHT22;64265;51.664;7.626;2023-03-02T05:58:46;20.00;64.30
2363;DHT22;64265;51.664;7.626;2023-03-02T06:01:13;20.00;64.30
2363;DHT22;64265;51.664;7.626;2023-03-02T06:03:41;20.00;64.30
2363;DHT22;64265;51.664;7.626;2023-03-02T06:06:08;20.00;64.30
2363;DHT22;64265;51.664;7.626;2023-03-02T06:08:40;20.00;64.30
2363;DHT22;64265;51.664;7.626;2023-03-02T06:11:08;20.00;64.30
2363;DHT22;64265;51.664;7.626;2023-03-02T06:13:35;20.00;64.30
2363;DHT22;64265;51.664;7.626;2023-03-02T06:16:01;20.00;64.30
2363;DHT22;64265;51.664;7.626;2023-03-02T06:18:28;20.00;64.30
2363;DHT22;64265;51.664;7.626;2023-03-02T06:20:56;20.00;64.30
2363;DHT22;64265;51.664;7.626;2023-03-02T06:23:24;20.00;64.30
2363;DHT22;64265;51.664;7.626;2023-03-02T06:25:51;20.00;64.40
2363;DHT22;64265;51.664;7.626;2023-03-02T06:28:18;20.00;64.30
2363;DHT22;64265;51.664;7.626;2023-03-02T06:30:45;20.00;64.30
2363;DHT22;64265;51.664;7.626;2023-03-02T06:33:13;20.00;64.30
2363;DHT22;64265;51.664;7.626;2023-03-02T06:35:40;20.00;64.30
2363;DHT22;64265;51.664;7.626;2023-03-02T06:38:08;20.00;64.30
2363;DHT22;64265;51.664;7.626;2023-03-02T06:40:35;20.00;64.20
2363;DHT22;64265;51.664;7.626;2023-03-02T06:43:02;20.00;64.20
2363;DHT22;64265;51.664;7.626;2023-03-02T06:45:29;20.00;64.20
2363;DHT22;64265;51.664;7.626;2023-03-02T06:47:58;19.90;64.20
2363;DHT22;64265;51.664;7.626;2023-03-02T06:50:25;19.90;64.20
2363;DHT22;64265;51.664;7.626;2023-03-02T06:52:51;19.90;64.20
2363;DHT22;64265;51.664;7.626;2023-03-02T06:55:19;19.90;64.30
2363;DHT22;64265;51.664;7.626;2023-03-02T06:57:46;19.90;64.30
2363;DHT22;64265;51.664;7.626;2023-03-02T07:00:14;19.90;65.00
2363;DHT22;64265;51.664;7.626;2023-03-02T07:02:42;20.00;64.40
2363;DHT22;64265;51.664;7.626;2023-03-02T07:05:09;20.00;64.30
2363;DHT22;64265;51.664;7.626;2023-03-02T07:07:36;20.00;64.30
2363;DHT22;64265;51.664;7.626;2023-03-02T07:10:04;20.00;64.40
2363;DHT22;64265;51.664;7.626;2023-03-02T07:12:32;20.10;64.40
2363;DHT22;64265;51.664;7.626;2023-03-02T07:14:59;20.10;64.40
2363;DHT22;64265;51.664;7.626;2023-03-02T07:17:26;20.10;64.30
2363;DHT22;64265;51.664;7.626;2023-03-02T07:19:53;20.10;64.30
2363;DHT22;64265;51.664;7.626;2023-03-02T07:22:20;20.10;64.30
2363;DHT22;64265;51.664;7.626;2023-03-02T07:24:46;20.10;64.30
2363;DHT22;64265;51.664;7.626;2023-03-02T07:27:13;20.10;64.30
2363;DHT22;64265;51.664;7.626;2023-03-02T07:29:41;20.10;64.40
2363;DHT22;64265;51.664;7.626;2023-03-02T07:32:08;20.10;64.40
2363;DHT22;64265;51.664;7.626;2023-03-02T07:34:34;20.10;64.40
2363;DHT22;64265;51.664;7.626;2023-03-02T07:37:01;20.10;64.40
2363;DHT22;64265;51.664;7.626;2023-03-02T07:39:28;20.20;64.50
2363;DHT22;64265;51.664;7.626;2023-03-02T07:41:56;20.20;64.50
2363;DHT22;64265;51.664;7.626;2023-03-02T07:44:23;20.20;64.50
2363;DHT22;64265;51.664;7.626;2023-03-02T07:46:51;20.20;64.50
2363;DHT22;64265;51.664;7.626;2023-03-02T07:49:18;20.10;64.30
2363;DHT22;64265;51.664;7.626;2023-03-02T07:51:45;20.10;64.30
2363;DHT22;64265;51.664;7.626;2023-03-02T07:54:12;20.10;64.20
2363;DHT22;64265;51.664;7.626;2023-03-02T07:56:39;20.10;64.20
2363;DHT22;64265;51.664;7.626;2023-03-02T07:59:06;20.10;64.20
2363;DHT22;64265;51.664;7.626;2023-03-02T08:01:33;20.10;64.20
2363;DHT22;64265;51.664;7.626;2023-03-02T08:04:01;20.10;64.30
2363;DHT22;64265;51.664;7.626;2023-03-02T08:06:27;20.10;64.20
2363;DHT22;64265;51.664;7.626;2023-03-02T08:08:54;20.10;64.30
2363;DHT22;64265;51.664;7.626;2023-03-02T08:11:21;20.10;64.30
2363;DHT22;64265;51.664;7.626;2023-03-02T08:13:47;20.10;64.30
2363;DHT22;64265;51.664;7.626;2023-03-02T08:16:15;20.10;64.40
2363;DHT22;64265;51.664;7.626;2023-03-02T08:18:42;20.20;64.50
2363;DHT22;64265;51.664;7.626;2023-03-02T08:21:15;20.20;64.50
2363;DHT22;64265;51.664;7.626;2023-03-02T08:23:42;20.20;64.40
2363;DHT22;64265;51.664;7.626;2023-03-02T08:26:09;20.30;64.50
2363;DHT22;64265;51.664;7.626;2023-03-02T08:28:36;20.30;64.50
2363;DHT22;64265;51.664;7.626;2023-03-02T08:31:04;20.30;64.50
2363;DHT22;64265;51.664;7.626;2023-03-02T08:33:31;20.30;64.50
2363;DHT22;64265;51.664;7.626;2023-03-02T08:36:00;20.30;64.40
2363;DHT22;64265;51.664;7.626;2023-03-02T08:38:29;20.30;64.50
2363;DHT22;64265;51.664;7.626;2023-03-02T08:40:56;20.40;64.60
2363;DHT22;64265;51.664;7.626;2023-03-02T08:43:24;20.40;64.50
2363;DHT22;64265;51.664;7.626;2023-03-02T08:45:52;20.40;64.50
2363;DHT22;64265;51.664;7.626;2023-03-02T08:48:19;20.40;64.50
2363;DHT22;64265;51.664;7.626;2023-03-02T08:50:53;20.40;64.50
2363;DHT22;64265;51.664;7.626;2023-03-02T08:53:20;20.40;64.50
2363;DHT22;64265;51.664;7.626;2023-03-02T08:55:48;20.40;64.50
2363;DHT22;64265;51.664;7.626;2023-03-02T08:58:15;20.40;64.50
2363;DHT22;64265;51.664;7.626;2023-03-02T09:00:42;20.40;64.50
2363;DHT22;64265;51.664;7.626;2023-03-02T09:03:08;20.30;64.40
2363;DHT22;64265;51.664;7.626;2023-03-02T09:05:35;20.30;64.30
2363;DHT22;64265;51.664;7.626;2023-03-02T09:08:02;20.30;64.30
2363;DHT22;64265;51.664;7.626;2023-03-02T09:10:29;20.30;64.10
2363;DHT22;64265;51.664;7.626;2023-03-02T09:12:58;20.20;63.60
2363;DHT22;64265;51.664;7.626;2023-03-02T09:15:25;20.10;63.50
2363;DHT22;64265;51.664;7.626;2023-03-02T09:17:52;20.10;63.00
2363;DHT22;64265;51.664;7.626;2023-03-02T09:20:18;20.00;62.20
2363;DHT22;64265;51.664;7.626;2023-03-02T09:22:45;20.10;62.10
2363;DHT22;64265;51.664;7.626;2023-03-02T09:25:15;20.00;61.40
2363;DHT22;64265;51.664;7.626;2023-03-02T09:27:42;20.00;61.40
2363;DHT22;64265;51.664;7.626;2023-03-02T09:30:12;20.00;61.20
2363;DHT22;64265;51.664;7.626;2023-03-02T09:32:39;20.00;61.10
2363;DHT22;64265;51.664;7.626;2023-03-02T09:35:07;20.00;60.70
2363;DHT22;64265;51.664;7.626;2023-03-02T09:37:33;20.00;60.80
2363;DHT22;64265;51.664;7.626;2023-03-02T09:40:05;20.10;61.00
2363;DHT22;64265;51.664;7.626;2023-03-02T09:42:54;20.10;61.00
2363;DHT22;64265;51.664;7.626;2023-03-02T09:45:48;20.20;61.20
2363;DHT22;64265;51.664;7.626;2023-03-02T09:48:21;20.20;61.30
2363;DHT22;64265;51.664;7.626;2023-03-02T09:50:54;20.20;61.40
2363;DHT22;64265;51.664;7.626;2023-03-02T09:53:40;20.20;61.40
2363;DHT22;64265;51.664;7.626;2023-03-02T09:56:14;20.30;61.50
2363;DHT22;64265;51.664;7.626;2023-03-02T09:58:47;20.30;61.60
2363;DHT22;64265;51.664;7.626;2023-03-02T10:01:21;20.30;61.60
2363;DHT22;64265;51.664;7.626;2023-03-02T10:03:57;20.30;61.80
2363;DHT22;64265;51.664;7.626;2023-03-02T10:06:26;20.30;61.70
2363;DHT22;64265;51.664;7.626;2023-03-02T10:08:54;20.30;61.70
2363;DHT22;64265;51.664;7.626;2023-03-02T10:11:28;20.30;61.80
2363;DHT22;64265;51.664;7.626;2023-03-02T10:13:59;20.30;61.90
2363;DHT22;64265;51.664;7.626;2023-03-02T10:16:35;20.30;61.90
2363;DHT22;64265;51.664;7.626;2023-03-02T10:19:07;20.30;61.90
2363;DHT22;64265;51.664;7.626;2023-03-02T10:21:37;20.30;61.90
2363;DHT22;64265;51.664;7.626;2023-03-02T10:24:12;20.20;61.80
2363;DHT22;64265;51.664;7.626;2023-03-02T10:26:41;20.20;61.90
2363;DHT22;64265;51.664;7.626;2023-03-02T10:29:24;20.20;61.90
2363;DHT22;64265;51.664;7.626;2023-03-02T10:31:58;20.20;62.00
2363;DHT22;64265;51.664;7.626;2023-03-02T10:34:30;20.20;62.00
2363;DHT22;64265;51.664;7.626;2023-03-02T10:36:57;20.20;62.10
2363;DHT22;64265;51.664;7.626;2023-03-02T10:39:24;20.20;62.10
2363;DHT22;64265;51.664;7.626;2023-03-02T10:41:52;20.20;62.10
2363;DHT22;64265;51.664;7.626;2023-03-02T10:44:24;20.20;62.10
2363;DHT22;64265;51.664;7.626;2023-03-02T10:46:54;20.10;61.30
2363;DHT22;64265;51.664;7.626;2023-03-02T10:49:26;20.00;60.40
2363;DHT22;64265;51.664;7.626;2023-03-02T10:51:59;20.00;60.40
2363;DHT22;64265;51.664;7.626;2023-03-02T10:54:27;20.10;60.90
2363;DHT22;64265;51.664;7.626;2023-03-02T10:56:56;20.10;61.10
2363;DHT22;64265;51.664;7.626;2023-03-02T10:59:41;20.20;61.40
2363;DHT22;64265;51.664;7.626;2023-03-02T11:02:17;20.20;62.40
2363;DHT22;64265;51.664;7.626;2023-03-02T11:04:46;20.20;61.70
2363;DHT22;64265;51.664;7.626;2023-03-02T11:07:15;20.20;61.80
2363;DHT22;64265;51.664;7.626;2023-03-02T11:09:43;20.30;62.00
2363;DHT22;64265;51.664;7.626;2023-03-02T11:12:14;20.30;62.10
2363;DHT22;64265;51.664;7.626;2023-03-02T11:14:41;20.30;62.20
2363;DHT22;64265;51.664;7.626;2023-03-02T11:17:32;20.30;62.20
2363;DHT22;64265;51.664;7.626;2023-03-02T11:20:00;20.30;62.10
2363;DHT22;64265;51.664;7.626;2023-03-02T11:22:33;20.30;62.20
2363;DHT22;64265;51.664;7.626;2023-03-02T11:25:05;20.30;62.10
2363;DHT22;64265;51.664;7.626;2023-03-02T11:27:35;20.30;61.90
2363;DHT22;64265;51.664;7.626;2023-03-02T11:30:10;20.20;61.70
2363;DHT22;64265;51.664;7.626;2023-03-02T11:32:43;20.20;61.40
2363;DHT22;64265;51.664;7.626;2023-03-02T11:35:20;20.10;61.20
2363;DHT22;64265;51.664;7.626;2023-03-02T11:37:49;20.10;61.40
2363;DHT22;64265;51.664;7.626;2023-03-02T11:40:20;20.10;61.30
2363;DHT22;64265;51.664;7.626;2023-03-02T11:42:52;20.10;61.60
2363;DHT22;64265;51.664;7.626;2023-03-02T11:45:23;20.10;61.80
2363;DHT22;64265;51.664;7.626;2023-03-02T11:47:55;20.10;62.10
2363;DHT22;64265;51.664;7.626;2023-03-02T11:50:24;20.10;62.30
2363;DHT22;64265;51.664;7.626;2023-03-02T11:52:54;20.10;62.50
2363;DHT22;64265;51.664;7.626;2023-03-02T11:55:24;20.10;62.60
2363;DHT22;64265;51.664;7.626;2023-03-02T11:57:53;20.10;62.80
2363;DHT22;64265;51.664;7.626;2023-03-02T12:00:29;20.10;62.90
2363;DHT22;64265;51.664;7.626;2023-03-02T12:02:59;20.10;63.10
2363;DHT22;64265;51.664;7.626;2023-03-02T12:05:28;20.10;63.30
2363;DHT22;64265;51.664;7.626;2023-03-02T12:07:56;20.10;63.40
2363;DHT22;64265;51.664;7.626;2023-03-02T12:10:29;20.10;63.70
2363;DHT22;64265;51.664;7.626;2023-03-02T12:13:01;20.10;63.90
2363;DHT22;64265;51.664;7.626;2023-03-02T12:15:35;20.10;63.90
2363;DHT22;64265;51.664;7.626;2023-03-02T12:18:14;20.10;64.00
2363;DHT22;64265;51.664;7.626;2023-03-02T12:20:41;20.10;64.30
2363;DHT22;64265;51.664;7.626;2023-03-02T12:23:09;20.00;63.80
2363;DHT22;64265;51.664;7.626;2023-03-02T12:25:46;20.00;63.90
2363;DHT22;64265;51.664;7.626;2023-03-02T12:28:30;20.00;64.00
2363;DHT22;64265;51.664;7.626;2023-03-02T12:31:06;20.10;64.90
2363;DHT22;64265;51.664;7.626;2023-03-02T12:33:42;20.00;64.00
2363;DHT22;64265;51.664;7.626;2023-03-02T12:36:16;20.00;64.10
2363;DHT22;64265;51.664;7.626;2023-03-02T12:38:51;20.00;64.20
2363;DHT22;64265;51.664;7.626;2023-03-02T12:41:36;20.00;64.20
2363;DHT22;64265;51.664;7.626;2023-03-02T12:46:58;20.00;64.30
2363;DHT22;64265;51.664;7.626;2023-03-02T12:49:43;20.00;65.10
2363;DHT22;64265;51.664;7.626;2023-03-02T12:52:21;20.00;64.40
2363;DHT22;64265;51.664;7.626;2023-03-02T12:54:59;20.00;64.40
2363;DHT22;64265;51.664;7.626;2023-03-02T12:57:26;20.00;64.50
2363;DHT22;64265;51.664;7.626;2023-03-02T12:59:55;20.00;64.50
2363;DHT22;64265;51.664;7.626;2023-03-02T13:02:24;20.00;64.50
2363;DHT22;64265;51.664;7.626;2023-03-02T13:04:57;20.00;64.40
2363;DHT22;64265;51.664;7.626;2023-03-02T13:07:25;20.00;64.50
2363;DHT22;64265;51.664;7.626;2023-03-02T13:09:54;20.00;64.60
2363;DHT22;64265;51.664;7.626;2023-03-02T13:12:24;20.00;64.60
2363;DHT22;64265;51.664;7.626;2023-03-02T13:14:53;20.00;64.70
2363;DHT22;64265;51.664;7.626;2023-03-02T13:17:23;20.10;64.80
2363;DHT22;64265;51.664;7.626;2023-03-02T13:19:50;20.10;64.80
2363;DHT22;64265;51.664;7.626;2023-03-02T13:22:19;20.10;64.80
2363;DHT22;64265;51.664;7.626;2023-03-02T13:24:53;20.10;64.80
2363;DHT22;64265;51.664;7.626;2023-03-02T13:27:22;20.20;64.80
2363;DHT22;64265;51.664;7.626;2023-03-02T13:29:49;20.20;64.90
2363;DHT22;64265;51.664;7.626;2023-03-02T13:32:18;20.20;64.80
2363;DHT22;64265;51.664;7.626;2023-03-02T13:34:47;20.20;65.00
2363;DHT22;64265;51.664;7.626;2023-03-02T13:37:23;20.20;65.20
2363;DHT22;64265;51.664;7.626;2023-03-02T13:39:55;20.20;65.20
2363;DHT22;64265;51.664;7.626;2023-03-02T13:42:25;20.20;65.30
2363;DHT22;64265;51.664;7.626;2023-03-02T13:44:52;20.20;65.40
2363;DHT22;64265;51.664;7.626;2023-03-02T13:47:21;20.20;65.40
2363;DHT22;64265;51.664;7.626;2023-03-02T13:49:48;20.20;65.40
2363;DHT22;64265;51.664;7.626;2023-03-02T13:52:21;20.20;65.70
2363;DHT22;64265;51.664;7.626;2023-03-02T13:54:48;20.20;65.80
2363;DHT22;64265;51.664;7.626;2023-03-02T13:57:21;20.20;66.00
2363;DHT22;64265;51.664;7.626;2023-03-02T13:59:50;20.20;66.20
2363;DHT22;64265;51.664;7.626;2023-03-02T14:02:22;20.30;66.50
2363;DHT22;64265;51.664;7.626;2023-03-02T14:04:49;20.30;66.60
2363;DHT22;64265;51.664;7.626;2023-03-02T14:07:16;20.30;66.60
2363;DHT22;64265;51.664;7.626;2023-03-02T14:09:44;20.20;66.50
2363;DHT22;64265;51.664;7.626;2023-03-02T14:12:20;20.30;66.70
2363;DHT22;64265;51.664;7.626;2023-03-02T14:14:48;20.30;66.70
2363;DHT22;64265;51.664;7.626;2023-03-02T14:17:19;20.30;66.70
2363;DHT22;64265;51.664;7.626;2023-03-02T14:19:47;20.30;66.80
2363;DHT22;64265;51.664;7.626;2023-03-02T14:22:17;20.30;66.80
2363;DHT22;64265;51.664;7.626;2023-03-02T14:24:45;20.30;66.80
2363;DHT22;64265;51.664;7.626;2023-03-02T14:27:13;20.30;66.90
2363;DHT22;64265;51.664;7.626;2023-03-02T14:29:41;20.30;66.90
2363;DHT22;64265;51.664;7.626;2023-03-02T14:32:10;20.30;66.90
2363;DHT22;64265;51.664;7.626;2023-03-02T14:34:37;20.30;67.00
2363;DHT22;64265;51.664;7.626;2023-03-02T14:37:05;20.30;67.10
2363;DHT22;64265;51.664;7.626;2023-03-02T14:39:34;20.30;67.10
2363;DHT22;64265;51.664;7.626;2023-03-02T14:42:04;20.30;67.10
2363;DHT22;64265;51.664;7.626;2023-03-02T14:44:30;20.30;67.30
2363;DHT22;64265;51.664;7.626;2023-03-02T14:46:57;20.30;67.30
2363;DHT22;64265;51.664;7.626;2023-03-02T14:49:24;20.30;67.30
2363;DHT22;64265;51.664;7.626;2023-03-02T14:51:58;20.30;67.20
2363;DHT22;64265;51.664;7.626;2023-03-02T14:54:30;20.30;67.20
2363;DHT22;64265;51.664;7.626;2023-03-02T14:57:00;20.20;67.00
2363;DHT22;64265;51.664;7.626;2023-03-02T14:59:28;20.20;67.00
2363;DHT22;64265;51.664;7.626;2023-03-02T15:01:54;20.20;67.00
2363;DHT22;64265;51.664;7.626;2023-03-02T15:04:21;20.20;67.00
2363;DHT22;64265;51.664;7.626;2023-03-02T15:06:48;20.20;66.90
2363;DHT22;64265;51.664;7.626;2023-03-02T15:09:15;20.20;66.90
2363;DHT22;64265;51.664;7.626;2023-03-02T15:11:42;20.20;66.80
2363;DHT22;64265;51.664;7.626;2023-03-02T15:14:08;20.20;66.80
2363;DHT22;64265;51.664;7.626;2023-03-02T15:16:36;20.20;66.80
2363;DHT22;64265;51.664;7.626;2023-03-02T15:19:03;20.20;66.70
2363;DHT22;64265;51.664;7.626;2023-03-02T15:21:30;20.20;66.70
2363;DHT22;64265;51.664;7.626;2023-03-02T15:23:57;20.20;66.70
2363;DHT22;64265;51.664;7.626;2023-03-02T15:26:23;20.20;66.70
2363;DHT22;64265;51.664;7.626;2023-03-02T15:28:50;20.20;66.60
2363;DHT22;64265;51.664;7.626;2023-03-02T15:31:18;20.20;66.60
2363;DHT22;64265;51.664;7.626;2023-03-02T15:33:46;20.20;67.40
2363;DHT22;64265;51.664;7.626;2023-03-02T15:36:16;20.20;66.50
2363;DHT22;64265;51.664;7.626;2023-03-02T15:38:43;20.20;67.30
2363;DHT22;64265;51.664;7.626;2023-03-02T15:41:12;20.20;66.50
2363;DHT22;64265;51.664;7.626;2023-03-02T15:43:39;20.20;66.40
2363;DHT22;64265;51.664;7.626;2023-03-02T15:46:06;20.20;66.40
2363;DHT22;64265;51.664;7.626;2023-03-02T15:48:34;20.20;66.40
2363;DHT22;64265;51.664;7.626;2023-03-02T15:51:05;20.20;66.40
2363;DHT22;64265;51.664;7.626;2023-03-02T15:53:34;20.20;66.30
2363;DHT22;64265;51.664;7.626;2023-03-02T15:56:03;20.20;66.00
2363;DHT22;64265;51.664;7.626;2023-03-02T15:58:30;20.10;65.70